createdAt,value
2022-08-07T00:00:09.439Z,3.40
2022-08-07T00:05:37.023Z,3.10
2022-08-07T00:10:59.445Z,3.13
2022-08-07T00:16:28.007Z,2.70
2022-08-07T00:21:56.858Z,2.33
2022-08-07T00:27:24.380Z,2.30
2022-08-07T00:32:50.559Z,2.87
2022-08-07T00:38:13.080Z,3.13
2022-08-07T00:44:00.627Z,2.70
2022-08-07T00:50:16.907Z,2.30
2022-08-07T00:55:05.014Z,2.83
2022-08-07T01:00:32.860Z,3.20
2022-08-07T01:05:56.760Z,2.80
2022-08-07T01:12:09.882Z,3.03
2022-08-07T01:17:04.069Z,2.50
2022-08-07T01:22:30.019Z,3.00
2022-08-07T01:27:53.326Z,2.87
2022-08-07T01:33:17.531Z,2.80
2022-08-07T01:38:42.987Z,2.70
2022-08-07T01:44:15.394Z,2.23
2022-08-07T01:49:39.688Z,2.40
2022-08-07T01:55:03.784Z,2.83
2022-08-07T02:00:32.359Z,2.83
2022-08-07T02:06:00.950Z,2.70
2022-08-07T02:11:57.891Z,2.70
2022-08-07T02:17:16.564Z,2.80
2022-08-07T02:22:54.803Z,2.77
2022-08-07T02:28:25.305Z,2.90
2022-08-07T02:34:01.839Z,2.90
2022-08-07T02:39:43.979Z,2.67
2022-08-07T02:45:58.269Z,2.70
2022-08-07T02:51:07.616Z,3.00
2022-08-07T02:56:51.684Z,2.60
2022-08-07T03:02:15.236Z,2.87
2022-08-07T03:08:04.601Z,2.97
2022-08-07T03:13:21.973Z,2.67
2022-08-07T03:18:49.526Z,2.30
2022-08-07T03:24:19.528Z,2.37
2022-08-07T03:29:51.677Z,2.27
2022-08-07T03:35:26.069Z,2.30
2022-08-07T03:40:53.938Z,1.90
2022-08-07T03:46:21.335Z,2.43
2022-08-07T03:51:59.094Z,2.47
2022-08-07T03:59:05.735Z,2.20
2022-08-07T04:03:13.275Z,2.10
2022-08-07T04:08:39.942Z,2.30
2022-08-07T04:14:10.098Z,2.50
2022-08-07T04:19:52.593Z,2.30
2022-08-07T04:25:20.053Z,2.20
2022-08-07T04:30:56.865Z,2.40
2022-08-07T04:36:26.962Z,2.40
2022-08-07T04:41:53.093Z,2.30
2022-08-07T04:47:57.374Z,2.20
2022-08-07T04:54:05.251Z,2.10
2022-08-07T05:00:10.823Z,2.00
2022-08-07T05:05:52.586Z,2.87
2022-08-07T05:11:19.492Z,2.47
2022-08-07T05:16:52.695Z,2.20
2022-08-07T05:22:26.733Z,2.20
2022-08-07T05:28:03.163Z,2.17
2022-08-07T05:33:38.172Z,2.37
2022-08-07T05:39:16.012Z,2.30
2022-08-07T05:45:04.357Z,2.37
2022-08-07T05:50:34.366Z,2.30
2022-08-07T05:56:03.273Z,2.23
2022-08-07T06:01:34.747Z,2.30
2022-08-07T06:07:04.336Z,2.10
2022-08-07T06:12:33.234Z,2.33
2022-08-07T06:17:58.927Z,2.30
2022-08-07T06:23:46.268Z,2.37
2022-08-07T06:29:06.533Z,2.33
2022-08-07T06:34:29.750Z,2.13
2022-08-07T06:40:13.188Z,2.03
2022-08-07T06:45:37.331Z,1.80
2022-08-07T06:51:08.301Z,2.10
2022-08-07T06:56:49.676Z,2.17
2022-08-07T07:02:53.752Z,2.30
2022-08-07T07:08:09.896Z,2.23
2022-08-07T07:13:55.389Z,2.07
2022-08-07T07:19:55.286Z,1.50
2022-08-07T07:26:34.226Z,1.43
2022-08-07T07:31:02.189Z,1.43
2022-08-07T07:36:29.623Z,1.40
2022-08-07T07:42:13.020Z,1.40
2022-08-07T07:47:51.956Z,1.30
2022-08-07T07:53:22.936Z,1.80
2022-08-07T07:58:48.815Z,1.40
2022-08-07T08:04:15.229Z,1.30
2022-08-07T08:09:51.813Z,1.40
2022-08-07T08:15:24.282Z,1.20
2022-08-07T08:20:48.147Z,1.20
2022-08-07T08:26:32.600Z,1.27
2022-08-07T08:32:17.199Z,1.35
2022-08-07T08:38:00.575Z,1.00
2022-08-07T08:43:56.248Z,1.40
2022-08-07T08:50:02.740Z,1.73
2022-08-07T08:55:54.532Z,1.42
2022-08-07T09:01:29.541Z,2.30
2022-08-07T09:07:11.344Z,1.42
2022-08-07T09:12:53.233Z,1.48
2022-08-07T09:18:47.378Z,1.42
2022-08-07T09:24:33.425Z,1.67
2022-08-07T09:30:08.700Z,1.80
2022-08-07T09:36:03.839Z,1.40
2022-08-07T09:41:59.114Z,1.25
2022-08-07T09:48:04.043Z,0.85
2022-08-07T09:53:41.180Z,1.27
2022-08-07T09:59:46.242Z,1.30
2022-08-07T10:05:58.189Z,1.33
2022-08-07T10:12:02.505Z,1.42
2022-08-07T10:18:01.540Z,1.60
2022-08-07T10:24:05.505Z,1.60
2022-08-07T10:29:51.785Z,1.40
2022-08-07T10:35:53.606Z,1.33
2022-08-07T10:41:46.588Z,1.13
2022-08-07T10:47:53.676Z,1.45
2022-08-07T10:53:47.626Z,1.67
2022-08-07T10:59:39.021Z,1.30
2022-08-07T11:05:44.835Z,1.60
2022-08-07T11:11:29.737Z,1.00
2022-08-07T11:17:13.570Z,1.30
2022-08-07T11:23:20.702Z,1.20
2022-08-07T11:29:05.466Z,1.15
2022-08-07T11:34:58.060Z,1.48
2022-08-07T11:40:28.651Z,1.48
2022-08-07T11:45:59.735Z,1.08
2022-08-07T11:51:41.399Z,1.10
2022-08-07T11:57:58.031Z,0.90
2022-08-07T12:03:45.265Z,1.13
2022-08-07T12:09:42.584Z,1.10
2022-08-07T12:15:35.831Z,1.27
2022-08-07T12:21:14.986Z,1.50
2022-08-07T12:27:03.372Z,1.10
2022-08-07T12:32:50.748Z,2.08
2022-08-07T12:38:29.458Z,1.20
2022-08-07T12:44:04.465Z,1.40
2022-08-07T12:49:51.757Z,0.95
2022-08-07T12:55:40.669Z,1.23
2022-08-07T13:01:34.917Z,1.17
2022-08-07T13:08:11.496Z,1.35
2022-08-07T13:13:47.038Z,1.63
2022-08-07T13:19:21.665Z,1.10
2022-08-07T13:25:02.369Z,1.17
2022-08-07T13:30:41.246Z,1.20
2022-08-07T13:36:17.368Z,1.45
2022-08-07T13:41:48.475Z,1.42
2022-08-07T13:47:15.042Z,1.20
2022-08-07T13:52:43.024Z,1.13
2022-08-07T13:58:31.720Z,1.35
2022-08-07T14:04:07.114Z,1.02
2022-08-07T14:10:12.281Z,1.20
2022-08-07T14:15:50.866Z,1.13
2022-08-07T14:21:21.012Z,1.10
2022-08-07T14:28:11.418Z,1.00
2022-08-07T14:32:59.910Z,1.10
2022-08-07T14:38:30.927Z,1.20
2022-08-07T14:44:08.041Z,1.00
2022-08-07T14:55:27.683Z,1.10
2022-08-07T15:00:55.543Z,1.20
2022-08-07T15:06:27.735Z,1.20
2022-08-07T15:12:01.273Z,1.27
2022-08-07T15:17:54.893Z,1.13
2022-08-07T15:25:14.521Z,0.90
2022-08-07T15:30:04.495Z,1.40
2022-08-07T15:34:58.359Z,0.98
2022-08-07T15:40:34.371Z,1.25
2022-08-07T15:46:04.537Z,1.42
2022-08-07T15:57:40.321Z,1.30
2022-08-07T16:03:21.624Z,3.45
2022-08-07T16:09:07.706Z,1.30
2022-08-07T16:14:43.252Z,1.30
2022-08-07T16:20:34.043Z,1.42
2022-08-07T16:26:33.008Z,1.20
2022-08-07T16:32:02.402Z,1.30
2022-08-07T16:38:15.321Z,0.90
2022-08-07T16:44:40.225Z,1.17
2022-08-07T16:50:39.199Z,1.13
2022-08-07T16:56:19.701Z,1.10
2022-08-07T17:02:02.881Z,1.70
2022-08-07T17:07:52.024Z,1.50
2022-08-07T17:13:22.720Z,1.50
2022-08-07T17:18:57.153Z,1.33
2022-08-07T17:24:53.780Z,1.27
2022-08-07T17:30:19.991Z,1.30
2022-08-07T17:35:55.095Z,1.20
2022-08-07T17:42:01.734Z,1.08
2022-08-07T17:47:38.025Z,1.40
2022-08-07T17:54:00.151Z,1.30
2022-08-07T17:59:10.392Z,1.20
2022-08-07T18:05:20.844Z,1.33
2022-08-07T18:12:07.606Z,1.40
2022-08-07T18:17:07.555Z,1.60
2022-08-07T18:22:40.271Z,1.80
2022-08-07T18:28:35.760Z,1.60
2022-08-07T18:34:39.311Z,2.13
2022-08-07T18:40:43.075Z,1.60
2022-08-07T18:46:27.824Z,1.67
2022-08-07T18:52:34.696Z,1.77
2022-08-07T18:58:19.798Z,7.78
2022-08-07T19:04:00.247Z,4.35
2022-08-07T19:09:56.851Z,2.08
2022-08-07T19:16:05.701Z,2.10
2022-08-07T19:21:54.878Z,1.77
2022-08-07T19:28:57.776Z,1.90
2022-08-07T19:33:13.165Z,1.90
2022-08-07T19:38:53.089Z,2.20
2022-08-07T19:44:24.226Z,2.20
2022-08-07T19:49:57.097Z,1.60
2022-08-07T19:55:24.130Z,2.92
2022-08-07T20:00:54.022Z,3.22
2022-08-07T20:06:28.533Z,2.03
2022-08-07T20:12:22.750Z,2.28
2022-08-07T20:17:40.513Z,2.50
2022-08-07T20:23:32.808Z,2.20
2022-08-07T20:28:59.226Z,2.40
2022-08-07T20:34:49.698Z,2.30
2022-08-07T20:40:32.298Z,2.30
2022-08-07T20:46:25.666Z,1.98
2022-08-07T20:51:48.879Z,2.22
2022-08-07T20:57:13.363Z,2.20
2022-08-07T21:03:01.005Z,2.30
2022-08-07T21:08:37.559Z,2.13
2022-08-07T21:14:31.731Z,2.20
2022-08-07T21:20:04.931Z,2.17
2022-08-07T21:26:10.534Z,2.30
2022-08-07T21:32:43.848Z,2.20
2022-08-07T21:38:14.775Z,2.10
2022-08-07T21:43:56.515Z,2.42
2022-08-07T21:50:01.269Z,2.87
2022-08-07T21:55:31.014Z,2.27
2022-08-07T22:00:59.622Z,2.93
2022-08-07T22:06:31.479Z,2.47
2022-08-07T22:12:06.873Z,2.67
2022-08-07T22:17:37.559Z,2.60
2022-08-07T22:23:16.917Z,2.37
2022-08-07T22:28:53.518Z,2.53
2022-08-07T22:34:28.991Z,2.60
2022-08-07T22:40:28.454Z,3.07
2022-08-07T22:46:21.461Z,2.53
2022-08-07T22:51:44.931Z,3.10
2022-08-07T22:57:44.796Z,3.40
2022-08-07T23:03:19.934Z,2.63
2022-08-07T23:10:04.377Z,2.80
2022-08-07T23:15:06.475Z,2.30
2022-08-07T23:20:53.041Z,2.70
2022-08-07T23:26:19.169Z,2.60
2022-08-07T23:34:19.955Z,2.87
2022-08-07T23:38:42.275Z,2.20
2022-08-07T23:44:11.551Z,2.80
2022-08-07T23:50:00.004Z,2.50
2022-08-07T23:55:52.051Z,2.63
